createdAt,value
2019-06-07T00:00:50.312Z,86.60
2019-06-07T00:03:31.204Z,86.90
2019-06-07T00:09:14.506Z,87.00
2019-06-07T00:12:21.504Z,87.20
2019-06-07T00:15:20.432Z,87.30
2019-06-07T00:22:11.988Z,87.80
2019-06-07T00:24:14.752Z,87.90
2019-06-07T00:29:56.200Z,87.80
2019-06-07T00:32:38.959Z,88.10
2019-06-07T00:44:40.112Z,88.10
2019-06-07T00:47:13.058Z,87.90
2019-06-07T00:49:58.171Z,88.10
2019-06-07T00:53:26.918Z,87.80
2019-06-07T00:55:48.473Z,88.10
2019-06-07T00:59:09.846Z,88.10
2019-06-07T01:01:41.820Z,88.10
2019-06-07T01:07:34.729Z,88.60
2019-06-07T01:10:52.346Z,88.40
2019-06-07T01:13:26.562Z,88.40
2019-06-07T01:16:16.188Z,88.60
2019-06-07T01:19:00.040Z,89.00
2019-06-07T01:21:39.417Z,88.40
2019-06-07T01:24:30.826Z,88.50
2019-06-07T01:27:04.988Z,88.50
2019-06-07T01:40:44.852Z,88.40
2019-06-07T01:43:31.010Z,88.90
2019-06-07T01:46:20.601Z,88.60
2019-06-07T01:49:22.792Z,88.50
2019-06-07T01:57:50.710Z,88.40
2019-06-07T02:00:39.632Z,88.70
2019-06-07T02:03:37.454Z,88.30
2019-06-07T02:06:21.714Z,88.70
2019-06-07T02:09:13.563Z,88.80
2019-06-07T02:12:24.730Z,88.70
2019-06-07T02:14:55.971Z,88.70
2019-06-07T02:17:47.302Z,89.00
2019-06-07T02:20:37.921Z,88.90
2019-06-07T02:26:29.973Z,89.30
2019-06-07T02:32:15.084Z,90.10
2019-06-07T02:35:06.447Z,89.90
2019-06-07T02:40:53.888Z,90.40
2019-06-07T02:43:45.177Z,90.40
2019-06-07T02:46:46.584Z,90.80
2019-06-07T02:49:33.447Z,90.90
2019-06-07T02:52:40.447Z,91.30
2019-06-07T02:55:19.094Z,92.10
2019-06-07T02:58:12.021Z,92.20
2019-06-07T03:03:40.214Z,92.20
2019-06-07T03:06:13.525Z,92.20
2019-06-07T03:08:47.181Z,92.20
2019-06-07T03:11:19.156Z,92.20
2019-06-07T03:13:50.593Z,92.20
2019-06-07T03:16:23.622Z,92.20
2019-06-07T03:18:57.578Z,92.20
2019-06-07T03:21:31.320Z,92.20
2019-06-07T03:24:02.773Z,92.20
2019-06-07T03:26:42.249Z,92.20
2019-06-07T03:29:07.527Z,92.20
2019-06-07T03:31:46.416Z,92.20
2019-06-07T03:34:10.946Z,92.20
2019-06-07T03:36:43.449Z,92.20
2019-06-07T03:39:15.437Z,92.20
2019-06-07T03:42:04.813Z,92.20
2019-06-07T03:44:19.801Z,92.20
2019-06-07T03:46:51.210Z,92.00
2019-06-07T03:49:23.845Z,91.80
2019-06-07T03:51:56.428Z,91.80
2019-06-07T03:54:29.509Z,92.10
2019-06-07T03:57:02.376Z,92.10
2019-06-07T03:59:38.660Z,92.20
2019-06-07T04:02:08.133Z,92.20
2019-06-07T04:04:40.876Z,92.20
2019-06-07T04:07:11.947Z,92.20
2019-06-07T04:09:44.324Z,92.20
2019-06-07T04:12:17.235Z,92.20
2019-06-07T04:14:48.455Z,92.00
2019-06-07T04:17:20.973Z,92.20
2019-06-07T04:19:53.619Z,92.00
2019-06-07T04:22:28.831Z,92.20
2019-06-07T04:25:05.135Z,92.20
2019-06-07T04:30:49.596Z,92.20
2019-06-07T04:33:19.968Z,91.90
2019-06-07T04:36:12.278Z,91.70
2019-06-07T04:38:44.185Z,91.50
2019-06-07T04:41:18.189Z,91.80
2019-06-07T04:43:50.619Z,91.70
2019-06-07T04:49:19.136Z,92.20
2019-06-07T04:51:50.831Z,92.20
2019-06-07T04:54:24.303Z,92.20
2019-06-07T04:56:55.765Z,92.20
2019-06-07T05:00:07.873Z,92.20
2019-06-07T05:02:03.797Z,92.20
2019-06-07T05:04:38.955Z,92.20
2019-06-07T05:07:09.112Z,92.20
2019-06-07T05:09:43.250Z,92.20
2019-06-07T05:12:14.763Z,92.20
2019-06-07T05:14:47.203Z,92.20
2019-06-07T05:17:21.438Z,92.20
2019-06-07T05:19:53.995Z,92.20
2019-06-07T05:22:26.621Z,92.00
2019-06-07T05:24:59.906Z,92.20
2019-06-07T05:27:33.875Z,91.40
2019-06-07T05:30:23.735Z,91.70
2019-06-07T05:32:43.743Z,90.90
2019-06-07T05:35:15.580Z,90.90
2019-06-07T05:40:21.432Z,90.70
2019-06-07T05:42:53.011Z,90.70
2019-06-07T05:45:28.306Z,90.40
2019-06-07T05:47:59.651Z,90.40
2019-06-07T05:50:55.840Z,90.30
2019-06-07T05:53:16.541Z,90.10
2019-06-07T05:55:47.675Z,90.00
2019-06-07T05:58:21.794Z,90.30
2019-06-07T06:00:53.568Z,90.40
2019-06-07T06:03:24.910Z,90.40
2019-06-07T06:05:57.885Z,90.50
2019-06-07T06:08:29.558Z,90.70
2019-06-07T06:11:03.210Z,90.80
2019-06-07T06:13:54.715Z,90.30
2019-06-07T06:16:10.157Z,90.20
2019-06-07T06:18:46.842Z,90.60
2019-06-07T06:21:19.919Z,90.60
2019-06-07T06:23:54.545Z,90.60
2019-06-07T06:26:27.454Z,89.90
2019-06-07T06:28:58.877Z,90.00
2019-06-07T06:31:30.184Z,89.90
2019-06-07T06:34:01.739Z,90.10
2019-06-07T06:36:34.634Z,89.80
2019-06-07T06:39:07.708Z,90.20
2019-06-07T06:41:57.124Z,90.30
2019-06-07T06:44:20.198Z,90.00
2019-06-07T06:46:58.277Z,89.90
2019-06-07T06:49:28.577Z,89.20
2019-06-07T06:51:58.838Z,89.40
2019-06-07T06:54:41.025Z,89.30
2019-06-07T06:57:19.003Z,89.00
2019-06-07T06:59:41.259Z,89.00
2019-06-07T07:02:12.430Z,89.30
2019-06-07T07:04:48.730Z,88.60
2019-06-07T07:07:20.119Z,88.00
2019-06-07T07:09:58.160Z,87.60
2019-06-07T07:12:26.405Z,87.90
2019-06-07T07:15:01.174Z,87.90
2019-06-07T07:20:09.964Z,87.30
2019-06-07T07:22:39.979Z,86.90
2019-06-07T07:25:12.662Z,86.70
2019-06-07T07:27:44.630Z,87.60
2019-06-07T07:30:35.973Z,86.90
2019-06-07T07:32:50.700Z,85.70
2019-06-07T07:35:23.383Z,86.30
2019-06-07T07:37:57.041Z,84.20
2019-06-07T07:42:58.932Z,83.30
2019-06-07T07:45:29.484Z,84.10
2019-06-07T07:48:15.588Z,82.70
2019-06-07T07:50:34.897Z,82.90
2019-06-07T07:53:08.654Z,83.00
2019-06-07T07:55:39.776Z,81.20
2019-06-07T07:58:09.921Z,81.40
2019-06-07T08:00:57.516Z,80.60
2019-06-07T08:03:15.890Z,80.90
2019-06-07T08:05:47.606Z,81.10
2019-06-07T08:08:18.695Z,80.90
2019-06-07T08:10:51.898Z,81.50
2019-06-07T08:13:26.378Z,81.10
2019-06-07T08:15:59.650Z,81.00
2019-06-07T08:18:29.091Z,81.50
2019-06-07T08:21:21.605Z,80.40
2019-06-07T08:23:33.077Z,81.30
2019-06-07T08:26:05.745Z,81.60
2019-06-07T08:28:38.146Z,81.60
2019-06-07T08:31:11.296Z,81.20
2019-06-07T08:33:44.128Z,81.30
2019-06-07T08:36:21.892Z,80.90
2019-06-07T08:38:54.192Z,80.30
2019-06-07T08:41:23.463Z,80.80
2019-06-07T08:43:56.825Z,80.70
2019-06-07T08:46:29.227Z,79.80
2019-06-07T08:49:04.776Z,79.90
2019-06-07T08:51:34.744Z,79.60
2019-06-07T08:54:21.808Z,80.60
2019-06-07T08:56:40.056Z,81.70
2019-06-07T08:59:11.854Z,81.20
2019-06-07T09:01:43.471Z,82.60
2019-06-07T09:04:17.608Z,82.60
2019-06-07T09:07:06.684Z,84.00
2019-06-07T09:09:31.818Z,82.40
2019-06-07T09:12:10.791Z,82.60
2019-06-07T09:14:58.945Z,81.20
2019-06-07T09:17:12.600Z,81.00
2019-06-07T09:19:43.050Z,81.90
2019-06-07T09:22:15.675Z,81.90
2019-06-07T09:24:51.342Z,82.60
2019-06-07T09:29:53.658Z,81.20
2019-06-07T09:32:23.802Z,80.40
2019-06-07T09:35:02.483Z,80.10
2019-06-07T09:40:19.613Z,80.10
2019-06-07T09:42:37.056Z,81.00
2019-06-07T09:45:13.847Z,79.50
2019-06-07T09:47:42.244Z,80.50
2019-06-07T09:50:12.719Z,80.30
2019-06-07T09:52:57.902Z,80.70
2019-06-07T09:55:24.230Z,82.00
2019-06-07T09:57:48.624Z,81.10
2019-06-07T10:00:40.073Z,81.50
2019-06-07T10:03:02.269Z,81.80
2019-06-07T10:05:27.834Z,81.60
2019-06-07T10:08:11.073Z,81.80
2019-06-07T10:13:04.177Z,82.00
2019-06-07T10:15:37.015Z,81.90
2019-06-07T10:18:07.154Z,81.90
2019-06-07T10:20:41.033Z,83.40
2019-06-07T10:23:12.163Z,83.20
2019-06-07T10:25:44.585Z,82.90
2019-06-07T10:28:17.474Z,82.80
2019-06-07T10:33:20.934Z,80.60
2019-06-07T10:35:53.125Z,81.40
2019-06-07T10:38:25.787Z,80.50
2019-06-07T10:41:00.793Z,81.40
2019-06-07T10:43:31.847Z,80.80
2019-06-07T10:46:05.567Z,81.30
2019-06-07T10:48:37.085Z,81.20
2019-06-07T10:51:11.450Z,80.30
2019-06-07T10:53:46.455Z,79.30
2019-06-07T10:56:19.350Z,79.20
2019-06-07T10:58:51.169Z,77.60
2019-06-07T11:01:21.335Z,77.40
2019-06-07T11:03:54.720Z,77.60
2019-06-07T11:06:24.877Z,76.10
2019-06-07T11:08:54.995Z,74.40
2019-06-07T11:11:29.843Z,72.80
2019-06-07T11:16:36.752Z,74.20
2019-06-07T11:19:12.589Z,74.20
2019-06-07T11:21:41.911Z,72.90
2019-06-07T11:24:14.437Z,71.40
2019-06-07T11:26:44.893Z,71.90
2019-06-07T11:29:15.179Z,70.40
2019-06-07T11:31:47.409Z,69.50
2019-06-07T11:34:19.809Z,70.10
2019-06-07T11:36:53.127Z,71.70
2019-06-07T11:39:24.018Z,70.90
2019-06-07T11:41:55.364Z,67.40
2019-06-07T11:44:27.804Z,68.90
2019-06-07T11:47:00.753Z,67.50
2019-06-07T11:49:31.915Z,69.60
2019-06-07T11:52:03.040Z,72.60
2019-06-07T11:54:37.661Z,72.70
2019-06-07T11:57:13.210Z,72.70
2019-06-07T11:59:48.318Z,70.60
2019-06-07T12:02:20.144Z,70.10
2019-06-07T12:04:56.568Z,70.00
2019-06-07T12:07:32.908Z,68.30
2019-06-07T12:10:08.539Z,68.10
2019-06-07T12:12:41.666Z,66.50
2019-06-07T12:15:15.006Z,68.00
2019-06-07T12:17:47.614Z,68.20
2019-06-07T12:20:21.039Z,68.20
2019-06-07T12:22:52.792Z,67.00
2019-06-07T12:25:27.057Z,68.60
2019-06-07T12:27:57.752Z,66.90
2019-06-07T12:30:28.426Z,65.80
2019-06-07T12:33:02.675Z,67.40
2019-06-07T12:35:38.113Z,67.10
2019-06-07T12:38:12.197Z,67.10
2019-06-07T12:40:56.854Z,66.10
2019-06-07T12:43:19.011Z,66.70
2019-06-07T12:48:41.703Z,67.00
2019-06-07T12:51:15.072Z,65.20
2019-06-07T12:53:47.549Z,66.30
2019-06-07T12:56:21.859Z,68.00
2019-06-07T12:58:53.468Z,68.30
2019-06-07T13:01:24.878Z,65.90
2019-06-07T13:03:54.976Z,66.60
2019-06-07T13:06:27.982Z,68.80
2019-06-07T13:09:00.966Z,67.40
2019-06-07T13:11:32.120Z,69.30
2019-06-07T13:14:03.493Z,69.70
2019-06-07T13:16:34.747Z,69.80
2019-06-07T13:19:07.759Z,69.30
2019-06-07T13:21:41.419Z,69.30
2019-06-07T13:24:12.505Z,70.50
2019-06-07T13:27:02.951Z,69.10
2019-06-07T13:29:34.601Z,69.50
2019-06-07T13:32:08.444Z,70.00
2019-06-07T13:37:14.376Z,69.10
2019-06-07T13:39:45.587Z,69.30
2019-06-07T13:42:16.754Z,68.50
2019-06-07T13:44:48.821Z,70.20
2019-06-07T13:47:21.364Z,69.10
2019-06-07T13:52:25.338Z,70.50
2019-06-07T13:55:01.201Z,71.30
2019-06-07T13:57:30.956Z,70.70
2019-06-07T14:00:00.209Z,70.10
2019-06-07T14:02:31.384Z,69.90
2019-06-07T14:05:02.519Z,70.20
2019-06-07T14:07:35.538Z,70.40
2019-06-07T14:10:19.402Z,69.80
2019-06-07T14:12:50.251Z,69.70
2019-06-07T14:15:22.339Z,69.80
2019-06-07T14:17:55.040Z,70.10
2019-06-07T14:22:59.044Z,69.20
2019-06-07T14:25:31.433Z,70.00
2019-06-07T14:28:01.597Z,69.50
2019-06-07T14:30:34.598Z,69.80
2019-06-07T14:33:05.994Z,69.90
2019-06-07T14:35:37.235Z,69.90
2019-06-07T14:38:08.741Z,70.10
2019-06-07T14:40:43.601Z,70.20
2019-06-07T14:43:15.067Z,69.40
2019-06-07T14:45:47.608Z,70.00
2019-06-07T14:48:20.134Z,69.60
2019-06-07T14:50:51.579Z,70.30
2019-06-07T14:53:24.507Z,70.50
2019-06-07T14:55:55.905Z,70.80
2019-06-07T14:58:27.094Z,70.40
2019-06-07T15:00:59.322Z,70.00
2019-06-07T15:03:30.524Z,70.70
2019-06-07T15:06:01.750Z,70.10
2019-06-07T15:08:32.910Z,70.70
2019-06-07T15:11:07.295Z,71.60
2019-06-07T15:13:39.874Z,70.90
2019-06-07T15:16:11.372Z,71.40
2019-06-07T15:18:43.506Z,71.60
2019-06-07T15:21:15.777Z,72.00
2019-06-07T15:23:48.422Z,71.60
2019-06-07T15:28:52.280Z,72.40
2019-06-07T15:31:22.355Z,72.10
2019-06-07T15:33:54.883Z,70.50
2019-06-07T15:36:30.451Z,72.10
2019-06-07T15:39:02.332Z,72.40
2019-06-07T15:41:33.080Z,70.70
2019-06-07T15:44:06.908Z,70.90
2019-06-07T15:46:40.098Z,72.30
2019-06-07T15:49:13.364Z,72.50
2019-06-07T15:51:43.255Z,72.60
2019-06-07T15:54:14.541Z,72.80
2019-06-07T15:56:49.319Z,72.60
2019-06-07T15:59:20.541Z,73.10
2019-06-07T16:01:50.535Z,73.20
2019-06-07T16:04:23.131Z,73.00
2019-06-07T16:06:58.062Z,72.70
2019-06-07T16:09:30.424Z,72.50
2019-06-07T16:12:00.500Z,71.20
2019-06-07T16:14:35.026Z,72.70
2019-06-07T16:17:10.136Z,72.80
2019-06-07T16:19:46.237Z,72.70
2019-06-07T16:22:16.771Z,73.10
2019-06-07T16:24:48.371Z,74.00
2019-06-07T16:27:22.755Z,73.30
2019-06-07T16:29:57.389Z,73.30
2019-06-07T16:32:30.610Z,73.00
2019-06-07T16:35:04.829Z,73.10
2019-06-07T16:37:43.015Z,73.40
2019-06-07T16:40:16.781Z,73.40
2019-06-07T16:42:49.124Z,73.30
2019-06-07T16:45:20.800Z,73.30
2019-06-07T16:47:51.504Z,73.40
2019-06-07T16:50:24.288Z,73.60
2019-06-07T16:52:58.083Z,72.80
2019-06-07T16:55:28.381Z,73.40
2019-06-07T16:58:02.511Z,73.00
2019-06-07T17:00:38.654Z,73.40
2019-06-07T17:03:12.296Z,73.50
2019-06-07T17:08:16.040Z,74.00
2019-06-07T17:10:50.881Z,74.20
2019-06-07T17:13:33.450Z,74.00
2019-06-07T17:15:58.326Z,73.80
2019-06-07T17:18:30.759Z,74.10
2019-06-07T17:21:04.047Z,74.50
2019-06-07T17:23:36.649Z,74.70
2019-06-07T17:26:09.391Z,74.30
2019-06-07T17:31:16.638Z,74.00
2019-06-07T17:33:50.057Z,73.80
2019-06-07T17:36:22.547Z,74.10
2019-06-07T17:38:53.580Z,74.20
2019-06-07T17:41:22.930Z,74.90
2019-06-07T17:44:00.025Z,74.90
2019-06-07T17:46:29.936Z,74.80
2019-06-07T17:49:02.249Z,74.90
2019-06-07T17:51:37.082Z,75.20
2019-06-07T17:54:08.470Z,75.50
2019-06-07T17:56:39.684Z,75.90
2019-06-07T18:02:07.096Z,75.90
2019-06-07T18:04:22.251Z,75.70
2019-06-07T18:06:53.629Z,75.40
2019-06-07T18:09:26.822Z,75.60
2019-06-07T18:12:02.442Z,76.00
2019-06-07T18:14:35.888Z,76.00
2019-06-07T18:17:10.213Z,76.30
2019-06-07T18:19:40.329Z,76.30
2019-06-07T18:22:13.210Z,76.30
2019-06-07T18:24:44.495Z,76.70
2019-06-07T18:27:14.551Z,76.30
2019-06-07T18:29:46.479Z,76.70
2019-06-07T18:32:19.025Z,76.70
2019-06-07T18:34:50.823Z,77.00
2019-06-07T18:37:23.235Z,77.10
2019-06-07T18:40:00.261Z,77.30
2019-06-07T18:42:29.994Z,77.30
2019-06-07T18:45:01.736Z,77.50
2019-06-07T18:47:34.307Z,77.70
2019-06-07T18:50:06.801Z,78.40
2019-06-07T18:52:39.383Z,79.00
2019-06-07T18:55:13.154Z,79.30
2019-06-07T18:57:44.202Z,79.70
2019-06-07T19:00:19.323Z,79.40
2019-06-07T19:02:51.948Z,79.20
2019-06-07T19:05:22.277Z,79.50
2019-06-07T19:07:52.853Z,80.00
2019-06-07T19:10:24.251Z,80.20
2019-06-07T19:12:57.402Z,80.20
2019-06-07T19:18:02.652Z,80.70
2019-06-07T19:20:34.242Z,80.70
2019-06-07T19:23:04.982Z,80.90
2019-06-07T19:25:40.014Z,81.10
2019-06-07T19:28:12.507Z,81.60
2019-06-07T19:30:47.083Z,82.00
2019-06-07T19:33:17.966Z,82.10
2019-06-07T19:35:48.900Z,82.20
2019-06-07T19:38:23.641Z,82.30
2019-06-07T19:40:57.987Z,82.40
2019-06-07T19:46:04.174Z,83.20
2019-06-07T19:48:35.499Z,83.90
2019-06-07T19:51:06.406Z,83.80
2019-06-07T19:53:40.428Z,84.00
2019-06-07T19:56:15.490Z,84.20
2019-06-07T19:58:48.130Z,84.20
2019-06-07T20:01:20.231Z,84.40
2019-06-07T20:03:54.152Z,84.70
2019-06-07T20:06:24.158Z,84.90
2019-06-07T20:08:54.551Z,84.80
2019-06-07T20:11:29.371Z,85.00
2019-06-07T20:14:01.186Z,85.20
2019-06-07T20:16:35.085Z,85.50
2019-06-07T20:19:07.043Z,85.60
2019-06-07T20:21:42.375Z,85.70
2019-06-07T20:24:26.796Z,85.90
2019-06-07T20:26:46.789Z,86.10
2019-06-07T20:29:26.004Z,86.20
2019-06-07T20:31:54.377Z,86.30
2019-06-07T20:34:25.472Z,86.30
2019-06-07T20:37:00.221Z,86.50
2019-06-07T20:39:33.147Z,86.30
2019-06-07T20:42:05.812Z,86.50
2019-06-07T20:44:38.413Z,86.60
2019-06-07T20:47:08.445Z,86.60
2019-06-07T20:49:41.012Z,86.70
2019-06-07T20:52:12.073Z,86.80
2019-06-07T20:54:43.115Z,87.00
2019-06-07T20:57:15.548Z,87.10
2019-06-07T20:59:46.759Z,87.20
2019-06-07T21:02:17.899Z,87.60
2019-06-07T21:04:52.487Z,87.50
2019-06-07T21:07:23.360Z,87.70
2019-06-07T21:10:15.188Z,87.40
2019-06-07T21:12:46.640Z,87.60
2019-06-07T21:15:17.051Z,87.60
2019-06-07T21:17:51.583Z,87.70
2019-06-07T21:20:26.145Z,87.60
2019-06-07T21:22:57.280Z,87.60
2019-06-07T21:25:28.851Z,87.70
2019-06-07T21:28:01.553Z,87.90
2019-06-07T21:30:32.472Z,87.80
2019-06-07T21:33:03.659Z,87.90
2019-06-07T21:35:38.205Z,87.70
2019-06-07T21:38:09.982Z,87.80
2019-06-07T21:40:41.011Z,88.20
2019-06-07T21:43:12.908Z,88.30
2019-06-07T21:45:44.210Z,88.40
2019-06-07T21:48:14.575Z,88.40
2019-06-07T21:50:45.753Z,88.50
2019-06-07T21:53:18.975Z,88.60
2019-06-07T21:55:49.055Z,88.70
2019-06-07T21:58:20.186Z,88.90
2019-06-07T22:00:59.076Z,88.80
2019-06-07T22:03:29.063Z,88.90
2019-06-07T22:05:59.062Z,88.80
2019-06-07T22:08:29.072Z,89.00
2019-06-07T22:10:59.108Z,89.10
2019-06-07T22:13:34.592Z,89.30
2019-06-07T22:16:21.580Z,89.90
2019-06-07T22:18:42.131Z,89.80
2019-06-07T22:21:13.317Z,89.50
2019-06-07T22:23:48.333Z,89.80
2019-06-07T22:26:21.563Z,90.10
2019-06-07T22:28:56.769Z,89.80
2019-06-07T22:31:30.988Z,89.80
2019-06-07T22:34:03.641Z,89.80
2019-06-07T22:36:35.038Z,90.10
2019-06-07T22:39:09.641Z,90.10
2019-06-07T22:41:41.238Z,90.20
2019-06-07T22:44:14.934Z,90.40
2019-06-07T22:46:47.541Z,90.50
2019-06-07T22:51:50.116Z,90.30
2019-06-07T22:54:23.609Z,90.50
2019-06-07T22:56:59.126Z,90.50
2019-06-07T22:59:30.369Z,90.50
2019-06-07T23:02:04.726Z,90.50
2019-06-07T23:04:36.400Z,90.20
2019-06-07T23:07:08.708Z,90.10
2019-06-07T23:09:42.935Z,90.00
2019-06-07T23:12:15.301Z,90.10
2019-06-07T23:14:46.354Z,90.60
2019-06-07T23:17:18.251Z,90.40
2019-06-07T23:19:51.050Z,90.40
2019-06-07T23:22:24.429Z,90.40
2019-06-07T23:24:57.082Z,89.20
2019-06-07T23:27:29.882Z,88.60
2019-06-07T23:30:08.136Z,88.80
2019-06-07T23:32:36.263Z,89.40
2019-06-07T23:35:10.735Z,89.50
2019-06-07T23:37:43.207Z,90.10
2019-06-07T23:40:13.257Z,90.80
2019-06-07T23:42:45.763Z,91.20
2019-06-07T23:45:19.524Z,91.60
2019-06-07T23:47:52.246Z,91.60
2019-06-07T23:50:23.858Z,91.40
2019-06-07T23:52:57.084Z,91.10
2019-06-07T23:55:28.322Z,91.20
2019-06-07T23:58:00.680Z,91.00
